Time;durP1;ratioP1;P1;durP2;ratioP2;P2;SDS_P1;SDS_P2;PMS_P1;PMS_P2;Temp;Humidity;BMP_temperature;BMP_pressure;BME280_temperature;BME280_humidity;BME280_pressure;Samples;Min_cycle;Max_cycle;Signal;HPM_P1;HPM_P2
2022/01/26 00:07:43;;;;;;;;;;;2.50;99.90;;;;;;5054178;28;19925;-72
2022/01/26 00:10:08;;;;;;;;;;;2.50;99.90;;;;;;5052550;28;20387;-72
2022/01/26 00:12:34;;;;;;;;;;;2.50;99.90;;;;;;5036127;28;19928;-72
2022/01/26 00:14:59;;;;;;;;;;;2.50;99.90;;;;;;5035660;28;20302;-72
2022/01/26 00:17:25;;;;;;;;;;;2.40;99.90;;;;;;5052448;28;20007;-72
2022/01/26 00:20:01;;;;;;;;;;;2.40;99.90;;;;;;5053216;28;20329;-72
2022/01/26 00:25:23;;;;;;;;;;;2.40;99.90;;;;;;5051835;28;20383;-72
2022/01/26 00:38:47;;;;;;;;;;;2.40;99.90;;;;;;5051647;28;19928;-72
2022/01/26 00:41:16;;;;;;;;;;;2.40;99.90;;;;;;5035025;28;19921;-72
2022/01/26 00:43:50;;;;;;;;;;;2.40;99.90;;;;;;5051507;28;20012;-72
2022/01/26 00:46:16;;;;;;;;;;;2.40;99.90;;;;;;5051717;28;19921;-72
2022/01/26 00:48:43;;;;;;;;;;;2.40;99.90;;;;;;5035149;28;20295;-72
2022/01/26 00:51:09;;;;;;;;;;;2.40;99.90;;;;;;5034906;28;20294;-72
2022/01/26 00:53:44;;;;;;;;;;;2.40;99.90;;;;;;5034444;28;19920;-72
2022/01/26 00:56:09;;;;;;;;;;;2.40;99.90;;;;;;5051906;28;19932;-72
2022/01/26 00:58:35;;;;;;;;;;;2.40;99.90;;;;;;5034624;28;20291;-72
2022/01/26 01:01:02;;;;;;;;;;;2.30;99.90;;;;;;5034690;28;20283;-75
2022/01/26 01:03:29;;;;;;;;;;;2.30;99.90;;;;;;5034801;28;19960;-75
2022/01/26 01:06:02;;;;;;;;;;;2.30;99.90;;;;;;5034708;28;19975;-74
2022/01/26 01:08:28;;;;;;;;;;;2.40;99.90;;;;;;5034675;28;20371;-75
2022/01/26 01:10:55;;;;;;;;;;;2.30;99.90;;;;;;5051134;28;19921;-75
2022/01/26 01:13:29;;;;;;;;;;;2.30;99.90;;;;;;5050728;28;20058;-75
2022/01/26 01:15:55;;;;;;;;;;;2.30;99.90;;;;;;5051180;28;20019;-75
2022/01/26 01:18:26;;;;;;;;;;;2.30;99.90;;;;;;5034976;28;20451;-75
2022/01/26 01:31:11;;;;;;;;;;;2.30;99.90;;;;;;5051417;28;19921;-75
2022/01/26 01:33:43;;;;;;;;;;;2.30;99.90;;;;;;5050910;28;19921;-75
2022/01/26 01:36:10;;;;;;;;;;;2.30;99.90;;;;;;5034129;28;19921;-75
2022/01/26 01:38:39;;;;;;;;;;;2.30;99.90;;;;;;5033672;28;20379;-75
2022/01/26 01:41:05;;;;;;;;;;;2.30;99.90;;;;;;5034247;28;19921;-75
2022/01/26 01:43:30;;;;;;;;;;;2.30;99.90;;;;;;5051882;28;19932;-75
2022/01/26 01:45:56;;;;;;;;;;;2.30;99.90;;;;;;5033682;28;19928;-75
2022/01/26 01:48:26;;;;;;;;;;;2.20;99.90;;;;;;5034147;28;19929;-74
2022/01/26 01:50:53;;;;;;;;;;;2.30;99.90;;;;;;5033843;28;19924;-75
2022/01/26 01:53:19;;;;;;;;;;;2.30;99.90;;;;;;5033574;28;19928;-75
2022/01/26 01:55:50;;;;;;;;;;;2.30;99.90;;;;;;5050741;28;19921;-75
2022/01/26 01:58:16;;;;;;;;;;;2.30;99.90;;;;;;5034276;28;20011;-75
2022/01/26 02:00:42;;;;;;;;;;;2.30;99.90;;;;;;5034103;28;19921;-75
2022/01/26 02:03:08;;;;;;;;;;;2.30;99.90;;;;;;5033561;28;20338;-75
2022/01/26 02:05:33;;;;;;;;;;;2.30;99.90;;;;;;5050871;28;20016;-75
2022/01/26 02:07:59;;;;;;;;;;;2.30;99.90;;;;;;5050161;28;20242;-75
2022/01/26 02:10:25;;;;;;;;;;;2.30;99.90;;;;;;5033897;28;19921;-75
2022/01/26 02:13:00;;;;;;;;;;;2.20;99.90;;;;;;5033831;28;20425;-75
2022/01/26 02:15:46;;;;;;;;;;;2.20;99.90;;;;;;5050544;28;19967;-75
2022/01/26 02:18:29;;;;;;;;;;;2.20;99.90;;;;;;5050439;28;20235;-75
2022/01/26 02:51:11;;;;;;;;;;;2.20;99.90;;;;;;5051012;28;19928;-75
2022/01/26 02:59:54;;;;;;;;;;;2.20;99.90;;;;;;5031772;28;19921;-75
2022/01/26 03:01:56;;;;;;;;;;;2.20;99.90;;;;;;5040830;28;19931;-75
2022/01/26 03:04:32;;;;;;;;;;;2.20;99.90;;;;;;5036942;28;19929;-75
2022/01/26 03:09:29;;;;;;;;;;;2.20;99.90;;;;;;5053811;28;20015;-75
2022/01/26 03:11:56;;;;;;;;;;;2.10;99.90;;;;;;5053603;28;19928;-75
2022/01/26 03:14:46;;;;;;;;;;;2.10;99.90;;;;;;5053504;28;20299;-75
2022/01/26 03:17:51;;;;;;;;;;;2.10;99.90;;;;;;5052656;28;19986;-74
2022/01/26 03:20:01;;;;;;;;;;;2.10;99.90;;;;;;5052379;28;19983;-75
2022/01/26 03:33:12;;;;;;;;;;;2.20;99.90;;;;;;5052769;28;20386;-72
2022/01/26 03:35:54;;;;;;;;;;;2.10;99.90;;;;;;5036041;28;20383;-72
2022/01/26 03:38:24;;;;;;;;;;;2.10;99.90;;;;;;5036692;28;19921;-72
2022/01/26 03:41:01;;;;;;;;;;;2.10;99.90;;;;;;5036510;28;19931;-72
2022/01/26 03:43:27;;;;;;;;;;;2.10;99.90;;;;;;5052763;28;20400;-72
2022/01/26 03:45:52;;;;;;;;;;;2.10;99.90;;;;;;5036142;28;20011;-72
2022/01/26 03:48:17;;;;;;;;;;;2.10;99.90;;;;;;5035771;28;19935;-72
2022/01/26 03:50:43;;;;;;;;;;;2.10;99.90;;;;;;5052509;28;20414;-72
2022/01/26 03:53:08;;;;;;;;;;;2.10;99.90;;;;;;5032469;28;19921;-72
2022/01/26 03:55:34;;;;;;;;;;;2.10;99.90;;;;;;5016216;28;19928;-72
2022/01/26 03:57:59;;;;;;;;;;;2.10;99.90;;;;;;5016224;28;20291;-72
2022/01/26 04:00:25;;;;;;;;;;;2.10;99.90;;;;;;5033923;28;19956;-72
2022/01/26 04:02:50;;;;;;;;;;;2.10;99.90;;;;;;5035468;28;19928;-72
2022/01/26 04:05:16;;;;;;;;;;;2.10;99.90;;;;;;5032727;28;20277;-72
2022/01/26 04:07:43;;;;;;;;;;;2.10;99.90;;;;;;5024740;28;19978;-74
2022/01/26 04:10:30;;;;;;;;;;;2.10;99.90;;;;;;5035157;28;19960;-75
2022/01/26 04:12:56;;;;;;;;;;;2.10;99.90;;;;;;5052118;28;19967;-75
2022/01/26 04:15:27;;;;;;;;;;;2.10;99.90;;;;;;5035364;28;19971;-75
2022/01/26 04:17:53;;;;;;;;;;;2.10;99.90;;;;;;5052263;28;19920;-75
2022/01/26 04:20:19;;;;;;;;;;;2.10;99.90;;;;;;5052067;28;20011;-75
2022/01/26 04:22:53;;;;;;;;;;;2.10;99.90;;;;;;5035303;28;19943;-74
2022/01/26 04:25:23;;;;;;;;;;;2.10;99.90;;;;;;5035495;28;19927;-75
2022/01/26 04:27:52;;;;;;;;;;;2.10;99.90;;;;;;5035130;28;19925;-72
2022/01/26 04:30:17;;;;;;;;;;;2.10;99.90;;;;;;5052111;28;19924;-72
2022/01/26 04:32:43;;;;;;;;;;;2.10;99.90;;;;;;5051689;28;19920;-72
2022/01/26 04:35:09;;;;;;;;;;;2.10;99.90;;;;;;5052216;28;19927;-72
2022/01/26 04:38:08;;;;;;;;;;;2.10;99.90;;;;;;5035077;28;20401;-72
2022/01/26 04:40:36;;;;;;;;;;;2.10;99.90;;;;;;5051664;28;20003;-72
2022/01/26 04:43:06;;;;;;;;;;;2.10;99.90;;;;;;5051704;28;20307;-72
2022/01/26 04:45:32;;;;;;;;;;;2.10;99.90;;;;;;5034682;28;20291;-72
2022/01/26 04:47:57;;;;;;;;;;;2.10;99.90;;;;;;5034980;28;19925;-72
2022/01/26 04:50:23;;;;;;;;;;;2.10;99.90;;;;;;5051405;28;19921;-72
2022/01/26 04:52:48;;;;;;;;;;;2.00;99.90;;;;;;5031678;28;20331;-72
2022/01/26 04:55:14;;;;;;;;;;;2.00;99.90;;;;;;5040388;28;19921;-72
2022/01/26 04:57:40;;;;;;;;;;;2.00;99.90;;;;;;5035296;28;19966;-72
2022/01/26 05:00:06;;;;;;;;;;;2.00;99.90;;;;;;5050959;28;19921;-72
2022/01/26 05:02:32;;;;;;;;;;;2.00;99.90;;;;;;5051028;28;19921;-72
2022/01/26 05:04:57;;;;;;;;;;;2.00;99.90;;;;;;5052436;28;19921;-72
2022/01/26 05:07:23;;;;;;;;;;;2.00;99.90;;;;;;5052435;28;20389;-72
2022/01/26 05:09:48;;;;;;;;;;;2.00;99.90;;;;;;5051075;28;19920;-72
2022/01/26 05:12:15;;;;;;;;;;;2.00;99.90;;;;;;5034314;28;19921;-72
2022/01/26 05:14:43;;;;;;;;;;;2.00;99.90;;;;;;5033934;28;19967;-72
2022/01/26 05:17:08;;;;;;;;;;;2.00;99.90;;;;;;5034457;28;20407;-72
2022/01/26 05:19:34;;;;;;;;;;;2.00;99.90;;;;;;5052072;28;19952;-72
2022/01/26 05:21:59;;;;;;;;;;;2.00;99.90;;;;;;5050301;28;19967;-72
2022/01/26 05:24:25;;;;;;;;;;;2.00;99.90;;;;;;5034696;28;20027;-72
2022/01/26 05:26:50;;;;;;;;;;;2.00;99.90;;;;;;5034294;28;19929;-72
2022/01/26 05:29:16;;;;;;;;;;;2.00;99.90;;;;;;5030887;28;19921;-72
2022/01/26 05:31:41;;;;;;;;;;;2.00;99.90;;;;;;5021827;28;20398;-72
2022/01/26 05:34:07;;;;;;;;;;;2.00;99.90;;;;;;5033793;28;19975;-72
2022/01/26 05:36:32;;;;;;;;;;;2.00;99.90;;;;;;5050869;28;19920;-72
2022/01/26 05:38:58;;;;;;;;;;;2.00;99.90;;;;;;5033976;28;19921;-73
2022/01/26 05:41:23;;;;;;;;;;;2.10;99.90;;;;;;5034322;28;19924;-73
2022/01/26 05:43:49;;;;;;;;;;;2.00;99.90;;;;;;5033900;28;20019;-73
2022/01/26 05:46:26;;;;;;;;;;;2.10;99.90;;;;;;5034122;28;19928;-74
2022/01/26 05:48:53;;;;;;;;;;;2.10;99.90;;;;;;5033817;28;19925;-74
2022/01/26 05:51:18;;;;;;;;;;;2.10;99.90;;;;;;5050966;28;20307;-74
2022/01/26 05:53:44;;;;;;;;;;;2.10;99.90;;;;;;5030330;28;19920;-74
2022/01/26 05:56:09;;;;;;;;;;;2.10;99.90;;;;;;5037376;28;19928;-74
2022/01/26 05:58:35;;;;;;;;;;;2.10;99.90;;;;;;5050569;28;19927;-74
2022/01/26 06:01:01;;;;;;;;;;;2.10;99.90;;;;;;5050289;28;19921;-74
2022/01/26 06:03:27;;;;;;;;;;;2.00;99.90;;;;;;5033733;28;20375;-74
2022/01/26 06:05:54;;;;;;;;;;;2.00;99.90;;;;;;5033976;28;19967;-75
2022/01/26 06:08:23;;;;;;;;;;;2.10;99.90;;;;;;5033789;28;20276;-74
2022/01/26 06:10:49;;;;;;;;;;;2.10;99.90;;;;;;5034064;28;19964;-74
2022/01/26 06:13:14;;;;;;;;;;;2.10;99.90;;;;;;5033470;28;19920;-74
2022/01/26 06:15:40;;;;;;;;;;;2.10;99.90;;;;;;5033083;28;19921;-74
2022/01/26 06:18:05;;;;;;;;;;;2.00;99.90;;;;;;5050386;28;20019;-74
2022/01/26 06:20:31;;;;;;;;;;;2.00;99.90;;;;;;5033838;28;20011;-74
2022/01/26 06:22:57;;;;;;;;;;;2.10;99.90;;;;;;5050539;28;19921;-74
2022/01/26 06:25:22;;;;;;;;;;;2.10;99.90;;;;;;5033925;28;19921;-74
2022/01/26 06:27:51;;;;;;;;;;;2.10;99.90;;;;;;5050134;28;19931;-74
2022/01/26 06:30:17;;;;;;;;;;;2.10;99.90;;;;;;5049980;28;19927;-74
2022/01/26 06:32:42;;;;;;;;;;;2.10;99.90;;;;;;5051362;28;19920;-74
2022/01/26 06:35:11;;;;;;;;;;;2.10;99.90;;;;;;5037540;28;20086;-74
2022/01/26 06:37:37;;;;;;;;;;;2.10;99.90;;;;;;5056305;28;19920;-75
2022/01/26 06:40:03;;;;;;;;;;;2.10;99.90;;;;;;5039871;28;19925;-75
2022/01/26 06:42:35;;;;;;;;;;;2.10;99.90;;;;;;5055253;28;19920;-74
2022/01/26 06:49:51;;;;;;;;;;;2.20;99.90;;;;;;5043622;28;19970;-75
2022/01/26 06:52:20;;;;;;;;;;;2.20;99.90;;;;;;5057040;28;19921;-75
2022/01/26 06:54:45;;;;;;;;;;;2.20;99.90;;;;;;5039308;28;19920;-75
2022/01/26 06:57:11;;;;;;;;;;;2.20;99.90;;;;;;5040130;28;20302;-75
2022/01/26 06:59:36;;;;;;;;;;;2.20;99.90;;;;;;5056631;28;19998;-75
2022/01/26 07:02:02;;;;;;;;;;;2.20;99.90;;;;;;5038680;28;19921;-76
2022/01/26 07:04:28;;;;;;;;;;;2.20;99.90;;;;;;5039439;28;19924;-75
2022/01/26 07:06:53;;;;;;;;;;;2.20;99.90;;;;;;5039354;28;19968;-75
2022/01/26 07:09:19;;;;;;;;;;;2.20;99.90;;;;;;5037597;28;20406;-76
2022/01/26 07:11:46;;;;;;;;;;;2.30;99.90;;;;;;5037670;28;19975;-76
2022/01/26 07:14:22;;;;;;;;;;;2.20;99.90;;;;;;5038235;28;19984;-73
2022/01/26 07:22:16;;;;;;;;;;;2.30;99.90;;;;;;5053159;28;19920;-76
2022/01/26 07:24:41;;;;;;;;;;;2.30;99.90;;;;;;5039075;28;19935;-76
2022/01/26 07:27:07;;;;;;;;;;;2.30;99.90;;;;;;5038602;28;20442;-76
2022/01/26 07:29:33;;;;;;;;;;;2.30;99.90;;;;;;5036268;28;20272;-76
2022/01/26 07:31:59;;;;;;;;;;;2.30;99.90;;;;;;5038120;28;19920;-76
2022/01/26 07:34:24;;;;;;;;;;;2.40;99.90;;;;;;5035748;28;19925;-75
2022/01/26 07:36:52;;;;;;;;;;;2.40;99.90;;;;;;5018133;28;19935;-75
2022/01/26 07:39:29;;;;;;;;;;;2.40;99.90;;;;;;5017348;28;19925;-75
2022/01/26 07:41:55;;;;;;;;;;;2.40;99.90;;;;;;5017218;28;19921;-76
2022/01/26 07:44:20;;;;;;;;;;;2.40;99.90;;;;;;5028842;28;20329;-76
2022/01/26 07:46:46;;;;;;;;;;;2.40;99.90;;;;;;5032694;28;19972;-76
2022/01/26 07:49:14;;;;;;;;;;;2.40;99.90;;;;;;5035772;28;19970;-76
2022/01/26 07:51:42;;;;;;;;;;;2.50;99.90;;;;;;5036627;28;19928;-76
2022/01/26 07:54:08;;;;;;;;;;;2.40;99.90;;;;;;5037153;28;19921;-76
2022/01/26 07:56:33;;;;;;;;;;;2.40;99.90;;;;;;5036396;28;19927;-77
2022/01/26 07:58:59;;;;;;;;;;;2.40;99.90;;;;;;5024656;28;19921;-75
2022/01/26 08:01:30;;;;;;;;;;;2.40;99.90;;;;;;5031534;28;19921;-75
2022/01/26 08:03:55;;;;;;;;;;;2.50;99.90;;;;;;5035523;28;19971;-74
2022/01/26 08:06:24;;;;;;;;;;;2.50;99.90;;;;;;5036659;28;19920;-74
2022/01/26 08:08:49;;;;;;;;;;;2.50;99.90;;;;;;5036786;28;20401;-75
2022/01/26 08:11:15;;;;;;;;;;;2.60;99.90;;;;;;5035580;28;20443;-75
2022/01/26 08:13:40;;;;;;;;;;;2.60;99.90;;;;;;5051959;28;19925;-75
2022/01/26 08:16:06;;;;;;;;;;;2.60;99.90;;;;;;5052226;28;20314;-75
2022/01/26 08:18:31;;;;;;;;;;;2.60;99.90;;;;;;5035769;28;19966;-75
2022/01/26 08:21:04;;;;;;;;;;;2.60;99.90;;;;;;5031686;28;19921;-75
2022/01/26 08:23:30;;;;;;;;;;;2.60;99.90;;;;;;5035300;28;19920;-75
2022/01/26 08:25:55;;;;;;;;;;;2.70;99.90;;;;;;5035235;28;19971;-74
2022/01/26 08:28:27;;;;;;;;;;;2.60;99.90;;;;;;5035272;28;19929;-75
2022/01/26 08:30:53;;;;;;;;;;;2.70;99.90;;;;;;5035678;28;20394;-74
2022/01/26 08:33:18;;;;;;;;;;;2.70;99.90;;;;;;5028231;28;19929;-75
2022/01/26 08:35:46;;;;;;;;;;;2.70;99.90;;;;;;5033290;28;19920;-75
2022/01/26 08:38:12;;;;;;;;;;;2.80;99.90;;;;;;5035155;28;19924;-75
2022/01/26 08:40:38;;;;;;;;;;;2.80;99.90;;;;;;5051795;28;19928;-75
2022/01/26 08:43:04;;;;;;;;;;;2.80;99.90;;;;;;5035254;28;19946;-75
2022/01/26 08:45:30;;;;;;;;;;;2.80;99.90;;;;;;5035185;28;19921;-75
2022/01/26 08:47:56;;;;;;;;;;;2.80;99.90;;;;;;5034691;28;19932;-75
2022/01/26 08:50:21;;;;;;;;;;;2.80;99.90;;;;;;5034983;28;19947;-75
2022/01/26 08:52:50;;;;;;;;;;;2.80;99.90;;;;;;5034710;28;19971;-75
2022/01/26 08:55:16;;;;;;;;;;;2.80;99.90;;;;;;5034949;28;19920;-75
2022/01/26 08:57:43;;;;;;;;;;;2.90;99.90;;;;;;5033494;28;19924;-75
2022/01/26 09:00:09;;;;;;;;;;;2.90;99.90;;;;;;5051537;28;20322;-75
2022/01/26 09:02:35;;;;;;;;;;;2.90;99.90;;;;;;5039615;28;20027;-75
2022/01/26 09:05:01;;;;;;;;;;;2.90;99.90;;;;;;5049656;28;19924;-74
2022/01/26 09:07:26;;;;;;;;;;;2.90;99.90;;;;;;5050845;28;19940;-74
2022/01/26 09:09:55;;;;;;;;;;;2.90;99.90;;;;;;5051323;28;19967;-75
2022/01/26 09:12:23;;;;;;;;;;;3.00;99.90;;;;;;5052634;28;19921;-74
2022/01/26 09:14:48;;;;;;;;;;;3.00;99.90;;;;;;5050736;28;19921;-76
2022/01/26 09:17:14;;;;;;;;;;;3.00;99.90;;;;;;5034627;28;19974;-75
2022/01/26 09:19:42;;;;;;;;;;;3.00;99.90;;;;;;5027769;28;20301;-75
2022/01/26 09:22:08;;;;;;;;;;;3.10;99.90;;;;;;5021454;28;19929;-75
2022/01/26 09:24:35;;;;;;;;;;;3.10;99.90;;;;;;5031800;28;19943;-75
2022/01/26 09:27:04;;;;;;;;;;;3.10;99.90;;;;;;5021045;28;19925;-76
2022/01/26 09:29:30;;;;;;;;;;;3.10;99.90;;;;;;5050365;28;19928;-75
2022/01/26 09:31:56;;;;;;;;;;;3.10;99.90;;;;;;5067369;28;19974;-75
2022/01/26 09:34:23;;;;;;;;;;;3.10;99.90;;;;;;5067333;28;20019;-75
2022/01/26 09:36:49;;;;;;;;;;;3.20;99.90;;;;;;5034581;28;19927;-76
2022/01/26 09:39:17;;;;;;;;;;;3.20;99.90;;;;;;5051162;28;19921;-75
2022/01/26 09:41:44;;;;;;;;;;;3.20;99.90;;;;;;5033332;28;20407;-75
2022/01/26 09:44:09;;;;;;;;;;;3.20;99.90;;;;;;5033904;28;19921;-75
2022/01/26 09:46:35;;;;;;;;;;;3.20;99.90;;;;;;5030870;28;19944;-75
2022/01/26 09:49:07;;;;;;;;;;;3.30;99.90;;;;;;5014760;28;19925;-80
2022/01/26 09:51:42;;;;;;;;;;;3.30;99.90;;;;;;5031396;28;19920;-75
2022/01/26 09:54:11;;;;;;;;;;;3.40;99.90;;;;;;5033107;28;20011;-76
2022/01/26 09:56:37;;;;;;;;;;;3.40;99.90;;;;;;5033676;28;19964;-76
2022/01/26 09:59:10;;;;;;;;;;;3.40;99.90;;;;;;5034109;28;20383;-76
2022/01/26 10:01:40;;;;;;;;;;;3.40;99.90;;;;;;5033928;28;19921;-77
2022/01/26 10:04:21;;;;;;;;;;;3.40;99.90;;;;;;5033699;28;19947;-77
2022/01/26 10:07:23;;;;;;;;;;;3.40;99.90;;;;;;5014112;28;19922;-77
2022/01/26 10:17:58;;;;;;;;;;;3.50;99.90;;;;;;5055112;28;19928;-77
2022/01/26 10:20:30;;;;;;;;;;;3.50;99.90;;;;;;5038398;28;20007;-77
2022/01/26 10:23:16;;;;;;;;;;;3.60;99.90;;;;;;5053619;28;19928;-77
2022/01/26 10:26:07;;;;;;;;;;;3.70;99.90;;;;;;5038315;28;20360;-77
2022/01/26 10:28:59;;;;;;;;;;;3.60;99.90;;;;;;5037932;28;19929;-76
2022/01/26 10:31:42;;;;;;;;;;;3.60;99.90;;;;;;5033035;28;20466;-79
2022/01/26 10:34:10;;;;;;;;;;;3.70;99.90;;;;;;5040370;28;19964;-76
2022/01/26 10:36:37;;;;;;;;;;;3.70;99.90;;;;;;5026265;28;20363;-76
2022/01/26 10:39:08;;;;;;;;;;;3.70;99.90;;;;;;5030179;28;20015;-76
2022/01/26 10:41:37;;;;;;;;;;;3.70;99.90;;;;;;5049691;28;19947;-76
2022/01/26 10:44:09;;;;;;;;;;;3.80;99.90;;;;;;5018928;28;19921;-76
2022/01/26 10:46:38;;;;;;;;;;;3.80;99.90;;;;;;5031600;28;19928;-76
2022/01/26 10:49:42;;;;;;;;;;;3.80;99.90;;;;;;5028468;28;20385;-76
2022/01/26 10:52:18;;;;;;;;;;;3.80;99.90;;;;;;5051649;28;20014;-76
2022/01/26 10:54:45;;;;;;;;;;;3.80;99.90;;;;;;5036235;28;20303;-74
2022/01/26 10:57:11;;;;;;;;;;;3.90;99.90;;;;;;5029977;28;19950;-74
2022/01/26 10:59:42;;;;;;;;;;;3.90;99.90;;;;;;5037401;28;19928;-74
2022/01/26 11:02:10;;;;;;;;;;;3.90;99.90;;;;;;5037401;28;20406;-74
2022/01/26 11:04:40;;;;;;;;;;;4.00;99.90;;;;;;5052389;28;20358;-74
2022/01/26 11:07:07;;;;;;;;;;;3.90;99.90;;;;;;5035953;28;19921;-77
2022/01/26 11:09:34;;;;;;;;;;;3.90;99.90;;;;;;5028495;28;19925;-74
2022/01/26 11:12:04;;;;;;;;;;;3.90;99.90;;;;;;5036949;28;19946;-74
2022/01/26 11:14:44;;;;;;;;;;;3.90;99.90;;;;;;5036482;28;19921;-75
2022/01/26 11:17:11;;;;;;;;;;;4.00;99.90;;;;;;5032765;28;19936;-77
2022/01/26 11:19:46;;;;;;;;;;;4.00;99.90;;;;;;5034923;28;19928;-74
2022/01/26 11:22:12;;;;;;;;;;;4.00;99.90;;;;;;5032832;28;19925;-76
2022/01/26 11:24:42;;;;;;;;;;;4.00;99.90;;;;;;5017068;28;19921;-76
2022/01/26 11:27:07;;;;;;;;;;;4.00;99.90;;;;;;5026530;28;20284;-74
2022/01/26 11:29:35;;;;;;;;;;;4.00;99.90;;;;;;5036319;28;19932;-74
2022/01/26 11:32:05;;;;;;;;;;;4.10;99.90;;;;;;5036505;28;19921;-74
2022/01/26 11:34:32;;;;;;;;;;;4.10;99.90;;;;;;5036629;28;20294;-75
2022/01/26 11:36:58;;;;;;;;;;;4.10;99.90;;;;;;5036223;28;19928;-74
2022/01/26 11:45:04;;;;;;;;;;;4.10;99.90;;;;;;5052678;28;19928;-74
2022/01/26 11:45:08;;;;;;;;;;;4.10;99.90;;;;;;5052379;28;20299;-74
2022/01/26 11:47:39;;;;;;;;;;;4.00;99.90;;;;;;5036159;28;19943;-77
2022/01/26 11:50:14;;;;;;;;;;;4.00;99.90;;;;;;5032780;28;19925;-74
2022/01/26 11:52:40;;;;;;;;;;;4.10;99.90;;;;;;5025540;28;19929;-74
2022/01/26 11:55:34;;;;;;;;;;;4.10;99.90;;;;;;5024314;28;19928;-75
2022/01/26 11:58:15;;;;;;;;;;;4.10;99.90;;;;;;4999474;28;19928;-74
2022/01/26 12:00:47;;;;;;;;;;;4.10;99.90;;;;;;5036401;28;19924;-74
2022/01/26 12:03:20;;;;;;;;;;;4.10;99.90;;;;;;5035905;28;20287;-74
2022/01/26 12:05:46;;;;;;;;;;;4.10;99.90;;;;;;5035910;28;20481;-75
2022/01/26 12:08:12;;;;;;;;;;;4.10;99.90;;;;;;5035018;28;20294;-74
2022/01/26 12:10:38;;;;;;;;;;;4.20;99.90;;;;;;5035562;28;19925;-75
2022/01/26 12:13:35;;;;;;;;;;;4.10;99.90;;;;;;5035385;28;19927;-78
2022/01/26 12:16:10;;;;;;;;;;;4.20;99.90;;;;;;5022620;28;19997;-77
2022/01/26 12:18:57;;;;;;;;;;;4.20;99.90;;;;;;5035782;28;19967;-77
2022/01/26 12:38:50;;;;;;;;;;;4.20;99.90;;;;;;5052217;28;20003;-75
2022/01/26 12:43:37;;;;;;;;;;;4.30;99.90;;;;;;5042039;28;19944;-76
2022/01/26 12:46:10;;;;;;;;;;;4.30;99.90;;;;;;5024559;28;20299;-76
2022/01/26 12:48:39;;;;;;;;;;;4.30;99.90;;;;;;5035735;28;20059;-76
2022/01/26 12:51:06;;;;;;;;;;;4.40;99.90;;;;;;5036485;28;19967;-75
2022/01/26 12:53:35;;;;;;;;;;;4.30;99.90;;;;;;5029218;28;20382;-75
2022/01/26 12:56:03;;;;;;;;;;;4.40;99.90;;;;;;5027152;28;19955;-75
2022/01/26 12:58:29;;;;;;;;;;;4.30;99.90;;;;;;5021666;28;20038;-75
2022/01/26 13:01:00;;;;;;;;;;;4.30;99.90;;;;;;5033389;28;19921;-75
2022/01/26 13:03:28;;;;;;;;;;;4.30;99.90;;;;;;5034725;28;20272;-76
2022/01/26 13:06:03;;;;;;;;;;;4.20;99.90;;;;;;5029241;28;19925;-75
2022/01/26 13:08:38;;;;;;;;;;;4.20;99.90;;;;;;5028002;28;19951;-75
2022/01/26 13:11:04;;;;;;;;;;;4.20;99.90;;;;;;5035749;28;20275;-75
2022/01/26 13:13:33;;;;;;;;;;;4.10;99.90;;;;;;5034418;28;19927;-75
2022/01/26 13:16:10;;;;;;;;;;;4.10;99.90;;;;;;5035001;28;20442;-75
2022/01/26 13:21:19;;;;;;;;;;;4.10;99.90;;;;;;5032150;28;19975;-75
2022/01/26 13:24:34;;;;;;;;;;;4.10;99.90;;;;;;5047447;28;19921;-75
2022/01/26 13:26:55;;;;;;;;;;;4.10;99.90;;;;;;5044801;28;19920;-76
2022/01/26 13:30:06;;;;;;;;;;;4.20;99.90;;;;;;5029861;28;20383;-75
2022/01/26 13:32:52;;;;;;;;;;;4.20;99.90;;;;;;5043124;28;19921;-75
2022/01/26 13:38:13;;;;;;;;;;;4.20;99.90;;;;;;5049923;28;19978;-75
2022/01/26 13:41:45;;;;;;;;;;;4.30;99.90;;;;;;5030506;28;20038;-75
2022/01/26 13:46:50;;;;;;;;;;;4.30;99.90;;;;;;5043903;28;19921;-75
2022/01/26 13:51:46;;;;;;;;;;;4.30;99.90;;;;;;5049097;28;20046;-76
2022/01/26 14:01:46;;;;;;;;;;;4.40;99.90;;;;;;5045827;28;20027;-76
2022/01/26 14:04:16;;;;;;;;;;;4.50;99.90;;;;;;5022334;28;19931;-76
2022/01/26 14:06:47;;;;;;;;;;;4.50;99.90;;;;;;5024552;28;20424;-76
2022/01/26 14:09:14;;;;;;;;;;;4.60;99.90;;;;;;5023838;28;20379;-77
2022/01/26 14:12:01;;;;;;;;;;;4.60;99.90;;;;;;5031045;28;20004;-78
2022/01/26 14:14:36;;;;;;;;;;;4.60;99.90;;;;;;5030734;28;19974;-74
2022/01/26 14:17:14;;;;;;;;;;;4.60;99.90;;;;;;5026527;28;19929;-76
2022/01/26 14:27:36;;;;;;;;;;;4.60;99.90;;;;;;5031830;28;19926;-76
2022/01/26 14:30:18;;;;;;;;;;;4.60;99.90;;;;;;5032627;28;19921;-76
2022/01/26 15:19:37;;;;;;;;;;;4.60;99.90;;;;;;5055563;28;19920;-76
2022/01/26 15:48:47;;;;;;;;;;;4.60;99.90;;;;;;5044304;28;20062;-76
2022/01/26 15:51:23;;;;;;;;;;;4.60;99.90;;;;;;5036254;28;20383;-76
2022/01/26 15:59:24;;;;;;;;;;;4.60;99.90;;;;;;5047093;28;20282;-76
2022/01/26 16:07:27;;;;;;;;;;;4.60;99.90;;;;;;5051511;28;20347;-78
2022/01/26 16:12:57;;;;;;;;;;;4.60;99.90;;;;;;5050353;28;19920;-75
2022/01/26 16:39:28;;;;;;;;;;;4.60;99.90;;;;;;5033273;28;19921;-76
2022/01/26 18:17:44;;;;;;;;;;;5.00;99.90;;;;;;5028168;28;20008;-74
2022/01/26 18:25:55;;;;;;;;;;;5.00;99.90;;;;;;5046846;28;19971;-74
2022/01/26 18:39:46;;;;;;;;;;;5.00;99.90;;;;;;5051518;28;19927;-74
2022/01/26 18:50:26;;;;;;;;;;;4.90;99.90;;;;;;5051186;28;19925;-74
2022/01/26 18:52:51;;;;;;;;;;;4.90;99.90;;;;;;5036173;28;20360;-74
2022/01/26 18:55:17;;;;;;;;;;;4.90;99.90;;;;;;5052977;28;19925;-74
2022/01/26 18:57:43;;;;;;;;;;;4.90;99.90;;;;;;5050500;28;19924;-74
2022/01/26 19:00:09;;;;;;;;;;;4.90;99.90;;;;;;5048141;28;19928;-74
2022/01/26 19:02:34;;;;;;;;;;;4.90;99.90;;;;;;5035396;28;19971;-74
2022/01/26 19:05:00;;;;;;;;;;;4.90;99.90;;;;;;5034026;28;19959;-74
2022/01/26 19:07:25;;;;;;;;;;;4.90;99.90;;;;;;5033453;28;20399;-74
2022/01/26 19:09:52;;;;;;;;;;;4.90;99.90;;;;;;5031860;28;20387;-75
2022/01/26 19:12:19;;;;;;;;;;;4.90;99.90;;;;;;5033432;28;20351;-74
2022/01/26 19:14:50;;;;;;;;;;;4.90;99.90;;;;;;5052193;28;19928;-74
2022/01/26 19:17:25;;;;;;;;;;;4.90;99.90;;;;;;5035336;28;20378;-76
2022/01/26 19:22:54;;;;;;;;;;;4.90;99.90;;;;;;5051137;28;19921;-74
2022/01/26 19:25:27;;;;;;;;;;;4.90;99.90;;;;;;5051811;28;20363;-74
2022/01/26 19:44:11;;;;;;;;;;;5.00;99.90;;;;;;5051754;28;20383;-74
2022/01/26 19:52:25;;;;;;;;;;;4.90;99.90;;;;;;5014042;28;19921;-74
2022/01/26 19:54:53;;;;;;;;;;;4.90;99.90;;;;;;5026501;28;19921;-74
2022/01/26 19:57:18;;;;;;;;;;;4.80;99.90;;;;;;5051998;28;20021;-75
2022/01/26 19:59:44;;;;;;;;;;;4.90;99.90;;;;;;5051258;28;19959;-74
2022/01/26 20:02:10;;;;;;;;;;;4.90;99.90;;;;;;5051198;28;20364;-74
2022/01/26 20:04:35;;;;;;;;;;;4.80;99.90;;;;;;5035130;28;20011;-74
2022/01/26 20:07:07;;;;;;;;;;;4.80;99.90;;;;;;5034903;28;19932;-75
2022/01/26 20:09:38;;;;;;;;;;;4.80;99.90;;;;;;5034242;28;20349;-74
2022/01/26 20:12:07;;;;;;;;;;;4.80;99.90;;;;;;5035064;28;19928;-74
2022/01/26 20:14:35;;;;;;;;;;;4.80;99.90;;;;;;5020118;28;19921;-74
2022/01/26 20:17:01;;;;;;;;;;;4.80;99.90;;;;;;5040374;28;20022;-74
2022/01/26 20:19:27;;;;;;;;;;;4.80;99.90;;;;;;5034870;28;19943;-74
2022/01/26 20:21:52;;;;;;;;;;;4.80;99.90;;;;;;5051448;28;20422;-74
2022/01/26 20:24:18;;;;;;;;;;;4.80;99.90;;;;;;5034431;28;19927;-74
2022/01/26 20:26:44;;;;;;;;;;;4.80;99.90;;;;;;5052362;28;19921;-74
2022/01/26 20:29:09;;;;;;;;;;;4.80;99.90;;;;;;5052429;28;19968;-75
2022/01/26 20:31:35;;;;;;;;;;;4.80;99.90;;;;;;5050851;28;19924;-74
2022/01/26 20:34:00;;;;;;;;;;;4.70;99.90;;;;;;5034544;28;19947;-74
2022/01/26 20:36:29;;;;;;;;;;;4.80;99.90;;;;;;5052544;28;19928;-74
2022/01/26 20:38:58;;;;;;;;;;;4.70;99.90;;;;;;5051963;28;20019;-74
2022/01/26 20:41:24;;;;;;;;;;;4.70;99.90;;;;;;5050625;28;20099;-74
2022/01/26 20:43:50;;;;;;;;;;;4.70;99.90;;;;;;5034384;28;19920;-74
2022/01/26 20:46:15;;;;;;;;;;;4.70;99.90;;;;;;5034299;28;20394;-74
2022/01/26 20:48:41;;;;;;;;;;;4.70;99.90;;;;;;5050705;28;19995;-74
2022/01/26 20:51:06;;;;;;;;;;;4.70;99.90;;;;;;5030525;28;19963;-74
2022/01/26 20:53:32;;;;;;;;;;;4.70;99.90;;;;;;5027578;28;19978;-74
2022/01/26 20:55:58;;;;;;;;;;;4.80;99.90;;;;;;5040354;28;20025;-74
2022/01/26 20:58:24;;;;;;;;;;;4.70;99.90;;;;;;5050042;28;19921;-74
2022/01/26 21:00:49;;;;;;;;;;;4.70;99.90;;;;;;5051520;28;19967;-75
2022/01/26 21:03:15;;;;;;;;;;;4.70;99.90;;;;;;5050871;28;19927;-75
2022/01/26 21:05:41;;;;;;;;;;;4.70;99.90;;;;;;5051634;28;19921;-75
2022/01/26 21:08:07;;;;;;;;;;;4.80;99.90;;;;;;5051386;28;19979;-74
2022/01/26 21:10:33;;;;;;;;;;;4.80;99.90;;;;;;5051397;28;19921;-74
2022/01/26 21:12:58;;;;;;;;;;;4.70;99.90;;;;;;5051127;28;19972;-75
2022/01/26 21:15:24;;;;;;;;;;;4.70;99.90;;;;;;5051956;28;19935;-74
2022/01/26 21:17:50;;;;;;;;;;;4.70;99.90;;;;;;5047980;28;19921;-74
2022/01/26 21:20:16;;;;;;;;;;;4.70;99.90;;;;;;5035063;28;20363;-74
2022/01/26 21:22:42;;;;;;;;;;;4.70;99.90;;;;;;5051430;28;20003;-74
2022/01/26 21:25:08;;;;;;;;;;;4.80;99.90;;;;;;5034211;28;19921;-74
2022/01/26 21:27:34;;;;;;;;;;;4.70;99.90;;;;;;5033736;28;19925;-74